sensor_id;sensor_type;location;lat;lon;timestamp;temperature;humidity
17984;DHT22;9117;52.420;20.728;2022-11-20T00:01:08;-3.40;1.00
17984;DHT22;9117;52.420;20.728;2022-11-20T00:03:37;-3.10;1.00
17984;DHT22;9117;52.420;20.728;2022-11-20T00:06:07;-3.40;99.90
17984;DHT22;9117;52.420;20.728;2022-11-20T00:08:36;-3.50;99.90
17984;DHT22;9117;52.420;20.728;2022-11-20T00:11:04;-3.50;1.00
17984;DHT22;9117;52.420;20.728;2022-11-20T00:13:41;-3.50;1.00
17984;DHT22;9117;52.420;20.728;2022-11-20T00:16:14;-3.00;1.00
17984;DHT22;9117;52.420;20.728;2022-11-20T00:18:42;-3.30;1.00
17984;DHT22;9117;52.420;20.728;2022-11-20T00:21:12;-3.00;1.00
17984;DHT22;9117;52.420;20.728;2022-11-20T00:23:41;-2.80;1.00
17984;DHT22;9117;52.420;20.728;2022-11-20T00:26:10;-3.50;99.90
17984;DHT22;9117;52.420;20.728;2022-11-20T00:28:40;-2.60;99.90
17984;DHT22;9117;52.420;20.728;2022-11-20T00:31:10;-3.50;1.00
17984;DHT22;9117;52.420;20.728;2022-11-20T00:33:39;-3.50;1.00
17984;DHT22;9117;52.420;20.728;2022-11-20T00:36:08;-3.60;1.00
17984;DHT22;9117;52.420;20.728;2022-11-20T00:38:37;-3.50;19.30
17984;DHT22;9117;52.420;20.728;2022-11-20T00:41:07;-3.60;99.90
17984;DHT22;9117;52.420;20.728;2022-11-20T00:43:35;-3.60;99.90
17984;DHT22;9117;52.420;20.728;2022-11-20T00:46:07;-2.60;99.90
17984;DHT22;9117;52.420;20.728;2022-11-20T00:48:35;-3.50;99.90
17984;DHT22;9117;52.420;20.728;2022-11-20T00:51:04;-3.50;1.00
17984;DHT22;9117;52.420;20.728;2022-11-20T00:53:32;-3.50;99.90
17984;DHT22;9117;52.420;20.728;2022-11-20T00:56:02;-3.50;1.00
17984;DHT22;9117;52.420;20.728;2022-11-20T00:58:32;-3.50;1.00
17984;DHT22;9117;52.420;20.728;2022-11-20T01:01:00;-3.50;1.00
17984;DHT22;9117;52.420;20.728;2022-11-20T01:03:32;-3.50;1.00
17984;DHT22;9117;52.420;20.728;2022-11-20T01:06:00;-3.50;1.00
17984;DHT22;9117;52.420;20.728;2022-11-20T01:08:30;-3.50;99.90
17984;DHT22;9117;52.420;20.728;2022-11-20T01:11:01;-3.50;99.90
17984;DHT22;9117;52.420;20.728;2022-11-20T01:13:30;-3.30;99.90
17984;DHT22;9117;52.420;20.728;2022-11-20T01:16:09;-3.40;1.00
17984;DHT22;9117;52.420;20.728;2022-11-20T01:18:41;-3.50;1.00
17984;DHT22;9117;52.420;20.728;2022-11-20T01:21:11;-3.50;99.90
17984;DHT22;9117;52.420;20.728;2022-11-20T01:23:40;-3.40;99.90
17984;DHT22;9117;52.420;20.728;2022-11-20T01:26:11;-3.40;1.00
17984;DHT22;9117;52.420;20.728;2022-11-20T01:28:40;-3.40;99.90
17984;DHT22;9117;52.420;20.728;2022-11-20T01:31:13;-3.10;1.00
17984;DHT22;9117;52.420;20.728;2022-11-20T01:33:43;-3.40;1.00
17984;DHT22;9117;52.420;20.728;2022-11-20T01:36:13;-3.40;99.90
17984;DHT22;9117;52.420;20.728;2022-11-20T01:38:42;-3.30;99.90
17984;DHT22;9117;52.420;20.728;2022-11-20T01:41:12;-3.10;1.00
17984;DHT22;9117;52.420;20.728;2022-11-20T01:44:02;-3.20;99.90
17984;DHT22;9117;52.420;20.728;2022-11-20T01:46:30;-2.40;1.00
17984;DHT22;9117;52.420;20.728;2022-11-20T01:49:03;-3.30;1.00
17984;DHT22;9117;52.420;20.728;2022-11-20T01:51:35;-3.30;99.90
17984;DHT22;9117;52.420;20.728;2022-11-20T01:54:09;-2.70;1.00
17984;DHT22;9117;52.420;20.728;2022-11-20T01:56:40;-3.20;1.00
17984;DHT22;9117;52.420;20.728;2022-11-20T01:59:11;-3.20;1.00
17984;DHT22;9117;52.420;20.728;2022-11-20T02:01:41;-3.20;1.00
17984;DHT22;9117;52.420;20.728;2022-11-20T02:04:11;-3.10;99.90
17984;DHT22;9117;52.420;20.728;2022-11-20T02:06:43;-3.20;99.90
17984;DHT22;9117;52.420;20.728;2022-11-20T02:09:14;-3.20;99.90
17984;DHT22;9117;52.420;20.728;2022-11-20T02:11:42;-3.20;99.90
17984;DHT22;9117;52.420;20.728;2022-11-20T02:14:10;-3.10;1.00
17984;DHT22;9117;52.420;20.728;2022-11-20T02:16:40;-3.10;99.90
17984;DHT22;9117;52.420;20.728;2022-11-20T02:19:19;-3.20;99.90
17984;DHT22;9117;52.420;20.728;2022-11-20T02:21:56;-3.20;99.90
17984;DHT22;9117;52.420;20.728;2022-11-20T02:24:27;-3.20;1.00
17984;DHT22;9117;52.420;20.728;2022-11-20T02:26:59;-3.20;99.90
17984;DHT22;9117;52.420;20.728;2022-11-20T02:29:32;-3.10;1.00
17984;DHT22;9117;52.420;20.728;2022-11-20T02:32:01;-3.20;1.00
17984;DHT22;9117;52.420;20.728;2022-11-20T02:34:29;-3.20;99.90
17984;DHT22;9117;52.420;20.728;2022-11-20T02:36:59;-3.20;99.90
17984;DHT22;9117;52.420;20.728;2022-11-20T02:39:28;-3.10;99.90
17984;DHT22;9117;52.420;20.728;2022-11-20T02:41:56;-3.20;1.00
17984;DHT22;9117;52.420;20.728;2022-11-20T02:44:24;-3.20;1.00
17984;DHT22;9117;52.420;20.728;2022-11-20T02:46:52;-3.20;99.90
17984;DHT22;9117;52.420;20.728;2022-11-20T02:49:20;-3.20;1.00
17984;DHT22;9117;52.420;20.728;2022-11-20T02:51:49;-3.10;1.00
17984;DHT22;9117;52.420;20.728;2022-11-20T02:54:17;-2.50;99.90
17984;DHT22;9117;52.420;20.728;2022-11-20T02:56:47;-3.10;99.90
17984;DHT22;9117;52.420;20.728;2022-11-20T02:59:15;-3.10;99.90
17984;DHT22;9117;52.420;20.728;2022-11-20T03:01:43;-3.10;99.90
17984;DHT22;9117;52.420;20.728;2022-11-20T03:04:11;-3.10;92.70
17984;DHT22;9117;52.420;20.728;2022-11-20T03:06:39;-3.10;1.00
17984;DHT22;9117;52.420;20.728;2022-11-20T03:09:07;-3.00;1.00
17984;DHT22;9117;52.420;20.728;2022-11-20T03:11:35;-3.00;1.00
17984;DHT22;9117;52.420;20.728;2022-11-20T03:14:05;-3.00;99.90
17984;DHT22;9117;52.420;20.728;2022-11-20T03:16:33;-3.00;1.00
17984;DHT22;9117;52.420;20.728;2022-11-20T03:19:01;-3.00;1.00
17984;DHT22;9117;52.420;20.728;2022-11-20T03:21:29;-3.00;1.00
17984;DHT22;9117;52.420;20.728;2022-11-20T03:23:57;-3.00;99.90
17984;DHT22;9117;52.420;20.728;2022-11-20T03:26:26;-2.90;99.90
17984;DHT22;9117;52.420;20.728;2022-11-20T03:28:56;-3.00;1.00
17984;DHT22;9117;52.420;20.728;2022-11-20T03:31:28;-3.00;1.00
17984;DHT22;9117;52.420;20.728;2022-11-20T03:33:56;-3.00;99.90
17984;DHT22;9117;52.420;20.728;2022-11-20T03:36:26;-3.00;1.00
17984;DHT22;9117;52.420;20.728;2022-11-20T03:38:55;-3.00;1.00
17984;DHT22;9117;52.420;20.728;2022-11-20T03:41:24;-3.00;99.90
17984;DHT22;9117;52.420;20.728;2022-11-20T03:43:54;-3.00;1.00
17984;DHT22;9117;52.420;20.728;2022-11-20T03:46:23;-3.00;1.00
17984;DHT22;9117;52.420;20.728;2022-11-20T03:48:52;-3.00;1.00
17984;DHT22;9117;52.420;20.728;2022-11-20T03:51:22;-3.00;1.00
17984;DHT22;9117;52.420;20.728;2022-11-20T03:53:52;-2.90;1.00
17984;DHT22;9117;52.420;20.728;2022-11-20T03:56:23;-3.00;1.00
17984;DHT22;9117;52.420;20.728;2022-11-20T03:58:51;-3.00;99.90
17984;DHT22;9117;52.420;20.728;2022-11-20T04:01:20;-2.30;1.00
17984;DHT22;9117;52.420;20.728;2022-11-20T04:03:49;-3.00;1.00
17984;DHT22;9117;52.420;20.728;2022-11-20T04:06:22;-3.00;99.90
17984;DHT22;9117;52.420;20.728;2022-11-20T04:08:50;-3.00;99.90
17984;DHT22;9117;52.420;20.728;2022-11-20T04:11:21;-3.00;99.90
17984;DHT22;9117;52.420;20.728;2022-11-20T04:13:51;-3.00;99.90
17984;DHT22;9117;52.420;20.728;2022-11-20T04:16:19;-3.00;1.00
17984;DHT22;9117;52.420;20.728;2022-11-20T04:18:52;-3.10;1.00
17984;DHT22;9117;52.420;20.728;2022-11-20T04:21:22;-3.10;1.00
17984;DHT22;9117;52.420;20.728;2022-11-20T04:23:51;-2.90;1.00
17984;DHT22;9117;52.420;20.728;2022-11-20T04:26:21;-3.20;99.90
17984;DHT22;9117;52.420;20.728;2022-11-20T04:28:49;-3.20;1.00
17984;DHT22;9117;52.420;20.728;2022-11-20T04:31:19;-3.20;1.00
17984;DHT22;9117;52.420;20.728;2022-11-20T04:33:47;-3.20;1.00
17984;DHT22;9117;52.420;20.728;2022-11-20T04:36:16;-2.50;99.90
17984;DHT22;9117;52.420;20.728;2022-11-20T04:38:50;-3.30;14.90
17984;DHT22;9117;52.420;20.728;2022-11-20T04:41:24;-3.30;99.90
17984;DHT22;9117;52.420;20.728;2022-11-20T04:43:54;-3.40;1.00
17984;DHT22;9117;52.420;20.728;2022-11-20T04:46:26;-3.40;1.00
17984;DHT22;9117;52.420;20.728;2022-11-20T04:48:55;-2.60;77.20
17984;DHT22;9117;52.420;20.728;2022-11-20T04:51:23;-2.70;99.90
17984;DHT22;9117;52.420;20.728;2022-11-20T04:53:53;-3.50;99.90
17984;DHT22;9117;52.420;20.728;2022-11-20T04:56:21;-3.50;99.90
17984;DHT22;9117;52.420;20.728;2022-11-20T04:58:49;-3.50;1.00
17984;DHT22;9117;52.420;20.728;2022-11-20T05:01:19;-3.50;1.00
17984;DHT22;9117;52.420;20.728;2022-11-20T05:03:48;-3.60;1.00
17984;DHT22;9117;52.420;20.728;2022-11-20T05:06:19;-3.60;1.00
17984;DHT22;9117;52.420;20.728;2022-11-20T05:08:47;-3.60;99.90
17984;DHT22;9117;52.420;20.728;2022-11-20T05:11:18;-3.60;1.00
17984;DHT22;9117;52.420;20.728;2022-11-20T05:13:47;-3.70;1.00
17984;DHT22;9117;52.420;20.728;2022-11-20T05:16:18;-3.70;99.90
17984;DHT22;9117;52.420;20.728;2022-11-20T05:18:46;-3.40;1.00
17984;DHT22;9117;52.420;20.728;2022-11-20T05:21:15;-3.80;99.90
17984;DHT22;9117;52.420;20.728;2022-11-20T05:23:44;-3.70;99.90
17984;DHT22;9117;52.420;20.728;2022-11-20T05:26:14;-3.80;99.90
17984;DHT22;9117;52.420;20.728;2022-11-20T05:28:44;-3.90;99.90
17984;DHT22;9117;52.420;20.728;2022-11-20T05:31:13;-3.90;1.00
17984;DHT22;9117;52.420;20.728;2022-11-20T05:33:42;-3.80;1.00
17984;DHT22;9117;52.420;20.728;2022-11-20T05:36:12;-3.90;1.00
17984;DHT22;9117;52.420;20.728;2022-11-20T05:38:41;-3.90;99.90
17984;DHT22;9117;52.420;20.728;2022-11-20T05:41:10;-3.90;99.90
17984;DHT22;9117;52.420;20.728;2022-11-20T05:43:40;-3.90;1.00
17984;DHT22;9117;52.420;20.728;2022-11-20T05:46:11;-3.90;99.80
17984;DHT22;9117;52.420;20.728;2022-11-20T05:48:41;-4.10;1.00
17984;DHT22;9117;52.420;20.728;2022-11-20T05:51:12;-3.70;1.00
17984;DHT22;9117;52.420;20.728;2022-11-20T05:53:40;-4.20;1.00
17984;DHT22;9117;52.420;20.728;2022-11-20T05:56:16;-4.20;1.00
17984;DHT22;9117;52.420;20.728;2022-11-20T05:58:46;-4.20;99.90
17984;DHT22;9117;52.420;20.728;2022-11-20T06:01:17;-4.20;1.00
17984;DHT22;9117;52.420;20.728;2022-11-20T06:03:46;-4.30;1.00
17984;DHT22;9117;52.420;20.728;2022-11-20T06:06:14;-4.30;99.90
17984;DHT22;9117;52.420;20.728;2022-11-20T06:08:43;-4.30;1.00
17984;DHT22;9117;52.420;20.728;2022-11-20T06:11:12;-4.30;99.90
17984;DHT22;9117;52.420;20.728;2022-11-20T06:13:40;-4.30;1.00
17984;DHT22;9117;52.420;20.728;2022-11-20T06:16:09;-4.20;1.00
17984;DHT22;9117;52.420;20.728;2022-11-20T06:18:39;-4.20;99.90
17984;DHT22;9117;52.420;20.728;2022-11-20T06:21:09;-4.30;1.00
17984;DHT22;9117;52.420;20.728;2022-11-20T06:23:37;-4.20;1.00
17984;DHT22;9117;52.420;20.728;2022-11-20T06:26:07;-4.20;99.90
17984;DHT22;9117;52.420;20.728;2022-11-20T06:28:36;-3.40;1.00
17984;DHT22;9117;52.420;20.728;2022-11-20T06:31:04;-4.10;99.90
17984;DHT22;9117;52.420;20.728;2022-11-20T06:33:33;-4.10;99.90
17984;DHT22;9117;52.420;20.728;2022-11-20T06:36:04;-4.10;1.00
17984;DHT22;9117;52.420;20.728;2022-11-20T06:38:37;-4.00;99.90
17984;DHT22;9117;52.420;20.728;2022-11-20T06:41:06;-3.90;99.90
17984;DHT22;9117;52.420;20.728;2022-11-20T06:43:34;-4.00;99.90
17984;DHT22;9117;52.420;20.728;2022-11-20T06:46:02;-3.90;99.90
17984;DHT22;9117;52.420;20.728;2022-11-20T06:48:30;-3.90;1.00
17984;DHT22;9117;52.420;20.728;2022-11-20T06:50:59;-3.80;1.00
17984;DHT22;9117;52.420;20.728;2022-11-20T06:53:31;-3.80;1.00
17984;DHT22;9117;52.420;20.728;2022-11-20T06:56:00;-3.70;1.00
17984;DHT22;9117;52.420;20.728;2022-11-20T06:58:29;-3.70;88.90
17984;DHT22;9117;52.420;20.728;2022-11-20T07:00:58;-3.70;99.90
17984;DHT22;9117;52.420;20.728;2022-11-20T07:03:27;-2.70;99.90
17984;DHT22;9117;52.420;20.728;2022-11-20T07:05:55;-3.00;99.90
17984;DHT22;9117;52.420;20.728;2022-11-20T07:08:24;-3.60;1.00
17984;DHT22;9117;52.420;20.728;2022-11-20T07:10:57;-3.60;1.00
17984;DHT22;9117;52.420;20.728;2022-11-20T07:13:25;-3.60;1.00
17984;DHT22;9117;52.420;20.728;2022-11-20T07:15:53;-3.60;1.00
17984;DHT22;9117;52.420;20.728;2022-11-20T07:18:21;-3.50;1.00
17984;DHT22;9117;52.420;20.728;2022-11-20T07:20:49;-3.50;1.00
17984;DHT22;9117;52.420;20.728;2022-11-20T07:23:17;-3.50;1.00
17984;DHT22;9117;52.420;20.728;2022-11-20T07:25:45;-3.40;1.00
17984;DHT22;9117;52.420;20.728;2022-11-20T07:28:15;-3.30;1.00
17984;DHT22;9117;52.420;20.728;2022-11-20T07:30:49;-3.30;1.00
17984;DHT22;9117;52.420;20.728;2022-11-20T07:33:18;-3.30;1.00
17984;DHT22;9117;52.420;20.728;2022-11-20T07:35:46;-3.30;99.90
17984;DHT22;9117;52.420;20.728;2022-11-20T07:38:14;-3.20;1.00
17984;DHT22;9117;52.420;20.728;2022-11-20T07:40:45;-3.10;99.90
17984;DHT22;9117;52.420;20.728;2022-11-20T07:43:15;-3.00;1.00
17984;DHT22;9117;52.420;20.728;2022-11-20T07:45:43;-3.00;1.00
17984;DHT22;9117;52.420;20.728;2022-11-20T07:48:11;-3.10;1.00
17984;DHT22;9117;52.420;20.728;2022-11-20T07:50:39;-3.10;1.00
17984;DHT22;9117;52.420;20.728;2022-11-20T07:53:07;-3.00;1.00
17984;DHT22;9117;52.420;20.728;2022-11-20T07:55:35;-2.90;99.90
17984;DHT22;9117;52.420;20.728;2022-11-20T07:58:03;-2.90;99.90
17984;DHT22;9117;52.420;20.728;2022-11-20T08:00:33;-2.90;1.00
17984;DHT22;9117;52.420;20.728;2022-11-20T08:03:04;-2.90;1.00
17984;DHT22;9117;52.420;20.728;2022-11-20T08:05:33;-2.80;1.00
17984;DHT22;9117;52.420;20.728;2022-11-20T08:08:04;-2.80;1.00
17984;DHT22;9117;52.420;20.728;2022-11-20T08:10:33;-2.90;1.00
17984;DHT22;9117;52.420;20.728;2022-11-20T08:13:01;-2.30;1.00
17984;DHT22;9117;52.420;20.728;2022-11-20T08:15:50;-2.10;1.00
17984;DHT22;9117;52.420;20.728;2022-11-20T08:18:18;-2.70;1.00
17984;DHT22;9117;52.420;20.728;2022-11-20T08:20:58;-2.60;1.00
17984;DHT22;9117;52.420;20.728;2022-11-20T08:23:26;-2.60;1.00
17984;DHT22;9117;52.420;20.728;2022-11-20T08:25:54;-2.70;1.00
17984;DHT22;9117;52.420;20.728;2022-11-20T08:28:22;-2.70;1.00
17984;DHT22;9117;52.420;20.728;2022-11-20T08:30:51;-2.50;1.00
17984;DHT22;9117;52.420;20.728;2022-11-20T08:33:25;-2.40;1.00
17984;DHT22;9117;52.420;20.728;2022-11-20T08:35:53;-2.40;1.00
17984;DHT22;9117;52.420;20.728;2022-11-20T08:38:21;-2.30;1.00
17984;DHT22;9117;52.420;20.728;2022-11-20T08:40:49;-1.70;1.00
17984;DHT22;9117;52.420;20.728;2022-11-20T08:43:31;-2.10;1.00
17984;DHT22;9117;52.420;20.728;2022-11-20T08:46:00;-2.30;1.00
17984;DHT22;9117;52.420;20.728;2022-11-20T08:48:28;-2.30;1.00
17984;DHT22;9117;52.420;20.728;2022-11-20T08:50:58;-2.20;1.00
17984;DHT22;9117;52.420;20.728;2022-11-20T08:53:26;-2.20;1.00
17984;DHT22;9117;52.420;20.728;2022-11-20T08:55:54;-2.30;1.00
17984;DHT22;9117;52.420;20.728;2022-11-20T08:58:24;-2.20;1.00
17984;DHT22;9117;52.420;20.728;2022-11-20T09:00:52;-2.30;99.90
17984;DHT22;9117;52.420;20.728;2022-11-20T09:03:22;-2.30;1.00
17984;DHT22;9117;52.420;20.728;2022-11-20T09:05:58;-2.20;1.00
17984;DHT22;9117;52.420;20.728;2022-11-20T09:08:27;-2.10;1.00
17984;DHT22;9117;52.420;20.728;2022-11-20T09:10:56;-2.10;1.00
17984;DHT22;9117;52.420;20.728;2022-11-20T09:13:25;-2.10;1.00
17984;DHT22;9117;52.420;20.728;2022-11-20T09:15:54;-2.00;1.00
17984;DHT22;9117;52.420;20.728;2022-11-20T09:18:27;-1.90;1.00
17984;DHT22;9117;52.420;20.728;2022-11-20T09:20:57;-1.70;1.00
17984;DHT22;9117;52.420;20.728;2022-11-20T09:23:26;-1.50;1.00
17984;DHT22;9117;52.420;20.728;2022-11-20T09:25:54;-1.80;1.00
17984;DHT22;9117;52.420;20.728;2022-11-20T09:28:26;-1.70;99.90
17984;DHT22;9117;52.420;20.728;2022-11-20T09:30:54;-1.70;1.00
17984;DHT22;9117;52.420;20.728;2022-11-20T09:33:26;-1.80;1.00
17984;DHT22;9117;52.420;20.728;2022-11-20T09:35:54;-0.90;1.00
17984;DHT22;9117;52.420;20.728;2022-11-20T09:38:22;-1.20;1.00
17984;DHT22;9117;52.420;20.728;2022-11-20T09:40:55;-1.60;1.00
17984;DHT22;9117;52.420;20.728;2022-11-20T09:43:32;-1.40;1.00
17984;DHT22;9117;52.420;20.728;2022-11-20T09:46:12;-1.50;1.00
17984;DHT22;9117;52.420;20.728;2022-11-20T09:48:51;-1.50;1.00
17984;DHT22;9117;52.420;20.728;2022-11-20T09:51:30;-1.50;1.00
17984;DHT22;9117;52.420;20.728;2022-11-20T09:54:11;-1.40;1.00
17984;DHT22;9117;52.420;20.728;2022-11-20T09:56:44;-1.00;1.00
17984;DHT22;9117;52.420;20.728;2022-11-20T09:59:55;-1.50;1.00
17984;DHT22;9117;52.420;20.728;2022-11-20T10:02:53;-1.40;1.00
17984;DHT22;9117;52.420;20.728;2022-11-20T10:05:31;-1.50;3.00
17984;DHT22;9117;52.420;20.728;2022-11-20T10:08:10;-1.50;1.00
17984;DHT22;9117;52.420;20.728;2022-11-20T10:10:44;-1.60;1.00
17984;DHT22;9117;52.420;20.728;2022-11-20T10:13:32;-1.40;1.00
17984;DHT22;9117;52.420;20.728;2022-11-20T10:16:13;-1.40;1.00
17984;DHT22;9117;52.420;20.728;2022-11-20T10:18:54;-1.40;1.00
17984;DHT22;9117;52.420;20.728;2022-11-20T10:21:32;-1.30;1.00
17984;DHT22;9117;52.420;20.728;2022-11-20T10:24:24;-1.10;1.00
17984;DHT22;9117;52.420;20.728;2022-11-20T10:27:06;-1.00;99.90
17984;DHT22;9117;52.420;20.728;2022-11-20T10:29:38;0.00;1.00
17984;DHT22;9117;52.420;20.728;2022-11-20T10:32:13;-0.80;1.00
17984;DHT22;9117;52.420;20.728;2022-11-20T10:34:47;-0.70;58.40
17984;DHT22;9117;52.420;20.728;2022-11-20T10:37:23;-0.80;1.00
17984;DHT22;9117;52.420;20.728;2022-11-20T10:39:58;-0.50;97.50
17984;DHT22;9117;52.420;20.728;2022-11-20T10:42:31;-0.70;1.00
17984;DHT22;9117;52.420;20.728;2022-11-20T10:45:09;-0.70;1.00
17984;DHT22;9117;52.420;20.728;2022-11-20T10:47:42;-0.60;1.00
17984;DHT22;9117;52.420;20.728;2022-11-20T10:50:13;-0.50;1.00
17984;DHT22;9117;52.420;20.728;2022-11-20T10:52:58;-0.40;1.00
17984;DHT22;9117;52.420;20.728;2022-11-20T10:55:33;-0.50;27.60
17984;DHT22;9117;52.420;20.728;2022-11-20T10:58:13;-0.50;99.90
17984;DHT22;9117;52.420;20.728;2022-11-20T11:00:41;-0.40;99.90
17984;DHT22;9117;52.420;20.728;2022-11-20T11:03:20;-0.30;97.10
17984;DHT22;9117;52.420;20.728;2022-11-20T11:05:53;-0.20;99.90
17984;DHT22;9117;52.420;20.728;2022-11-20T11:08:26;-0.30;99.90
17984;DHT22;9117;52.420;20.728;2022-11-20T11:10:58;-0.10;23.10
17984;DHT22;9117;52.420;20.728;2022-11-20T11:13:29;-0.10;99.90
17984;DHT22;9117;52.420;20.728;2022-11-20T11:16:01;0.00;1.00
17984;DHT22;9117;52.420;20.728;2022-11-20T11:18:34;0.40;1.00
17984;DHT22;9117;52.420;20.728;2022-11-20T11:21:04;0.40;1.00
17984;DHT22;9117;52.420;20.728;2022-11-20T11:23:37;0.10;99.90
17984;DHT22;9117;52.420;20.728;2022-11-20T11:26:17;0.20;99.90
17984;DHT22;9117;52.420;20.728;2022-11-20T11:28:53;0.20;62.00
17984;DHT22;9117;52.420;20.728;2022-11-20T11:31:23;0.30;1.00
17984;DHT22;9117;52.420;20.728;2022-11-20T11:33:51;0.90;99.90
17984;DHT22;9117;52.420;20.728;2022-11-20T11:36:21;0.20;99.90
17984;DHT22;9117;52.420;20.728;2022-11-20T11:38:53;0.30;99.90
17984;DHT22;9117;52.420;20.728;2022-11-20T11:41:24;1.00;99.90
17984;DHT22;9117;52.420;20.728;2022-11-20T11:43:55;0.80;99.90
17984;DHT22;9117;52.420;20.728;2022-11-20T11:46:49;0.30;99.90
17984;DHT22;9117;52.420;20.728;2022-11-20T11:49:20;0.40;99.90
17984;DHT22;9117;52.420;20.728;2022-11-20T11:52:10;0.40;99.90
17984;DHT22;9117;52.420;20.728;2022-11-20T11:54:47;0.30;99.90
17984;DHT22;9117;52.420;20.728;2022-11-20T11:57:23;0.40;99.90
17984;DHT22;9117;52.420;20.728;2022-11-20T12:00:01;0.30;99.90
17984;DHT22;9117;52.420;20.728;2022-11-20T12:02:35;0.30;99.90
17984;DHT22;9117;52.420;20.728;2022-11-20T12:05:13;0.40;99.90
17984;DHT22;9117;52.420;20.728;2022-11-20T12:07:46;0.50;99.90
17984;DHT22;9117;52.420;20.728;2022-11-20T12:10:23;0.50;27.60
17984;DHT22;9117;52.420;20.728;2022-11-20T12:13:02;0.60;1.00
17984;DHT22;9117;52.420;20.728;2022-11-20T12:15:33;0.70;1.00
17984;DHT22;9117;52.420;20.728;2022-11-20T12:18:02;0.90;1.00
17984;DHT22;9117;52.420;20.728;2022-11-20T12:20:35;1.30;1.00
17984;DHT22;9117;52.420;20.728;2022-11-20T12:23:13;1.00;99.90
17984;DHT22;9117;52.420;20.728;2022-11-20T12:25:48;1.30;99.90
17984;DHT22;9117;52.420;20.728;2022-11-20T12:28:36;1.80;99.90
17984;DHT22;9117;52.420;20.728;2022-11-20T12:31:24;2.00;99.90
17984;DHT22;9117;52.420;20.728;2022-11-20T12:34:04;2.10;1.00
17984;DHT22;9117;52.420;20.728;2022-11-20T12:36:40;1.60;99.90
17984;DHT22;9117;52.420;20.728;2022-11-20T12:39:34;1.70;1.00
17984;DHT22;9117;52.420;20.728;2022-11-20T12:45:35;1.60;99.90
17984;DHT22;9117;52.420;20.728;2022-11-20T12:48:31;1.10;1.00
17984;DHT22;9117;52.420;20.728;2022-11-20T12:51:20;0.10;99.90
17984;DHT22;9117;52.420;20.728;2022-11-20T12:53:59;0.90;1.00
17984;DHT22;9117;52.420;20.728;2022-11-20T12:56:38;1.00;1.00
17984;DHT22;9117;52.420;20.728;2022-11-20T12:59:45;1.00;99.90
17984;DHT22;9117;52.420;20.728;2022-11-20T13:02:25;1.30;1.00
17984;DHT22;9117;52.420;20.728;2022-11-20T13:05:10;0.90;71.60
17984;DHT22;9117;52.420;20.728;2022-11-20T13:07:45;0.80;1.00
17984;DHT22;9117;52.420;20.728;2022-11-20T13:10:18;0.90;1.00
17984;DHT22;9117;52.420;20.728;2022-11-20T13:12:50;0.90;1.00
17984;DHT22;9117;52.420;20.728;2022-11-20T13:15:33;1.40;1.00
17984;DHT22;9117;52.420;20.728;2022-11-20T13:18:04;0.80;1.00
17984;DHT22;9117;52.420;20.728;2022-11-20T13:20:36;0.80;1.00
17984;DHT22;9117;52.420;20.728;2022-11-20T13:23:08;0.70;99.90
17984;DHT22;9117;52.420;20.728;2022-11-20T13:25:37;1.00;1.00
17984;DHT22;9117;52.420;20.728;2022-11-20T13:28:27;0.60;1.00
17984;DHT22;9117;52.420;20.728;2022-11-20T13:30:58;0.60;1.00
17984;DHT22;9117;52.420;20.728;2022-11-20T13:33:29;0.60;1.00
17984;DHT22;9117;52.420;20.728;2022-11-20T13:36:00;0.60;1.00
17984;DHT22;9117;52.420;20.728;2022-11-20T13:38:39;0.50;99.90
17984;DHT22;9117;52.420;20.728;2022-11-20T13:41:08;0.50;99.90
17984;DHT22;9117;52.420;20.728;2022-11-20T13:43:52;0.50;1.00
17984;DHT22;9117;52.420;20.728;2022-11-20T13:46:21;0.50;99.90
17984;DHT22;9117;52.420;20.728;2022-11-20T13:48:51;0.40;99.90
17984;DHT22;9117;52.420;20.728;2022-11-20T13:51:30;0.50;1.00
17984;DHT22;9117;52.420;20.728;2022-11-20T13:57:32;0.50;1.00
17984;DHT22;9117;52.420;20.728;2022-11-20T14:00:11;0.40;1.00
17984;DHT22;9117;52.420;20.728;2022-11-20T14:02:41;0.40;1.00
17984;DHT22;9117;52.420;20.728;2022-11-20T14:05:19;0.30;1.00
17984;DHT22;9117;52.420;20.728;2022-11-20T14:07:49;0.30;1.00
17984;DHT22;9117;52.420;20.728;2022-11-20T14:10:22;0.40;1.00
17984;DHT22;9117;52.420;20.728;2022-11-20T14:12:57;0.20;1.00
17984;DHT22;9117;52.420;20.728;2022-11-20T14:15:28;0.90;1.00
17984;DHT22;9117;52.420;20.728;2022-11-20T14:17:59;0.80;99.90
17984;DHT22;9117;52.420;20.728;2022-11-20T14:20:29;0.20;99.90
17984;DHT22;9117;52.420;20.728;2022-11-20T14:22:59;0.20;1.00
17984;DHT22;9117;52.420;20.728;2022-11-20T14:25:28;0.20;1.00
17984;DHT22;9117;52.420;20.728;2022-11-20T14:27:59;0.20;99.90
17984;DHT22;9117;52.420;20.728;2022-11-20T14:30:29;0.30;1.00
17984;DHT22;9117;52.420;20.728;2022-11-20T14:33:02;0.30;1.00
17984;DHT22;9117;52.420;20.728;2022-11-20T14:35:35;0.20;1.00
17984;DHT22;9117;52.420;20.728;2022-11-20T14:38:09;0.20;1.00
17984;DHT22;9117;52.420;20.728;2022-11-20T14:40:39;0.20;1.00
17984;DHT22;9117;52.420;20.728;2022-11-20T14:43:18;0.20;99.90
17984;DHT22;9117;52.420;20.728;2022-11-20T14:45:52;0.00;1.00
17984;DHT22;9117;52.420;20.728;2022-11-20T14:48:28;0.00;1.00
17984;DHT22;9117;52.420;20.728;2022-11-20T14:50:57;0.00;1.00
17984;DHT22;9117;52.420;20.728;2022-11-20T14:53:25;-0.10;99.90
17984;DHT22;9117;52.420;20.728;2022-11-20T14:55:59;0.00;1.00
17984;DHT22;9117;52.420;20.728;2022-11-20T14:58:29;0.00;1.00
17984;DHT22;9117;52.420;20.728;2022-11-20T15:01:01;0.20;99.90
17984;DHT22;9117;52.420;20.728;2022-11-20T15:03:36;-0.10;1.00
17984;DHT22;9117;52.420;20.728;2022-11-20T15:06:05;-0.10;99.90
17984;DHT22;9117;52.420;20.728;2022-11-20T15:08:34;-0.20;1.00
17984;DHT22;9117;52.420;20.728;2022-11-20T15:11:03;-0.20;1.00
17984;DHT22;9117;52.420;20.728;2022-11-20T15:13:33;-0.20;1.00
17984;DHT22;9117;52.420;20.728;2022-11-20T15:16:03;-0.20;99.90
17984;DHT22;9117;52.420;20.728;2022-11-20T15:18:36;-0.20;1.00
17984;DHT22;9117;52.420;20.728;2022-11-20T15:21:10;0.10;1.00
17984;DHT22;9117;52.420;20.728;2022-11-20T15:23:39;-0.20;99.90
17984;DHT22;9117;52.420;20.728;2022-11-20T15:26:08;-0.20;99.90
17984;DHT22;9117;52.420;20.728;2022-11-20T15:28:43;-0.30;99.90
17984;DHT22;9117;52.420;20.728;2022-11-20T15:31:16;-0.30;1.00
17984;DHT22;9117;52.420;20.728;2022-11-20T15:33:46;0.30;1.00
17984;DHT22;9117;52.420;20.728;2022-11-20T15:36:14;-0.40;1.00
17984;DHT22;9117;52.420;20.728;2022-11-20T15:38:42;-0.40;99.90
17984;DHT22;9117;52.420;20.728;2022-11-20T15:41:10;-0.40;1.00
17984;DHT22;9117;52.420;20.728;2022-11-20T15:43:39;-0.50;1.00
17984;DHT22;9117;52.420;20.728;2022-11-20T15:46:11;-0.50;1.00
17984;DHT22;9117;52.420;20.728;2022-11-20T15:48:42;-0.50;1.00
17984;DHT22;9117;52.420;20.728;2022-11-20T15:51:22;-0.50;99.90
17984;DHT22;9117;52.420;20.728;2022-11-20T15:53:52;-0.60;1.00
17984;DHT22;9117;52.420;20.728;2022-11-20T15:56:20;-0.60;1.00
17984;DHT22;9117;52.420;20.728;2022-11-20T15:58:48;-0.60;1.00
17984;DHT22;9117;52.420;20.728;2022-11-20T16:01:17;-0.60;1.00
17984;DHT22;9117;52.420;20.728;2022-11-20T16:03:46;-0.40;1.00
17984;DHT22;9117;52.420;20.728;2022-11-20T16:06:15;-0.50;49.00
17984;DHT22;9117;52.420;20.728;2022-11-20T16:08:44;-0.60;27.40
17984;DHT22;9117;52.420;20.728;2022-11-20T16:11:13;-0.20;99.90
17984;DHT22;9117;52.420;20.728;2022-11-20T16:13:41;-0.40;1.00
17984;DHT22;9117;52.420;20.728;2022-11-20T16:16:30;-0.60;99.90
17984;DHT22;9117;52.420;20.728;2022-11-20T16:18:59;-0.60;1.00
17984;DHT22;9117;52.420;20.728;2022-11-20T16:21:29;-0.60;1.00